Time;durP1;ratioP1;P1;durP2;ratioP2;P2;SDS_P1;SDS_P2;PMS_P1;PMS_P2;Temp;Humidity;BMP_temperature;BMP_pressure;BME280_temperature;BME280_humidity;BME280_pressure;Samples;Min_cycle;Max_cycle;Signal;HPM_P1;HPM_P2
2023/04/30 00:00:22;;;;;;;5.45;3.17;;;;;;;;;;4995882;28;20199;-55
2023/04/30 00:02:48;;;;;;;3.58;3.08;;;;;;;;;;4995840;28;20458;-55
2023/04/30 00:05:13;;;;;;;7.22;3.50;;;;;;;;;;4994604;28;20181;-56
2023/04/30 00:07:41;;;;;;;4.30;3.28;;;;;;;;;;4994802;28;20478;-55
2023/04/30 00:10:07;;;;;;;4.30;2.92;;;;;;;;;;4995611;28;20482;-55
2023/04/30 00:12:33;;;;;;;3.83;2.95;;;;;;;;;;4978355;28;20193;-55
2023/04/30 00:15:00;;;;;;;3.15;2.88;;;;;;;;;;4995741;28;20546;-55
2023/04/30 00:17:26;;;;;;;3.70;3.00;;;;;;;;;;4994675;28;20587;-55
2023/04/30 00:19:52;;;;;;;4.40;2.97;;;;;;;;;;4995042;28;20189;-56
2023/04/30 00:22:18;;;;;;;4.43;3.13;;;;;;;;;;4993328;28;20208;-55
2023/04/30 00:24:44;;;;;;;6.18;2.90;;;;;;;;;;4994271;28;20460;-55
2023/04/30 00:27:10;;;;;;;6.38;2.85;;;;;;;;;;4994522;28;20205;-55
2023/04/30 00:29:36;;;;;;;4.43;3.42;;;;;;;;;;4995434;28;20181;-55
2023/04/30 00:32:02;;;;;;;9.10;2.92;;;;;;;;;;4994814;28;20189;-55
2023/04/30 00:34:28;;;;;;;4.35;3.08;;;;;;;;;;4994056;28;20189;-55
2023/04/30 00:36:54;;;;;;;3.38;2.78;;;;;;;;;;4994741;28;20189;-55
2023/04/30 00:39:20;;;;;;;5.20;3.78;;;;;;;;;;4993630;28;20181;-55
2023/04/30 00:41:46;;;;;;;3.50;2.80;;;;;;;;;;4994535;28;20228;-55
2023/04/30 00:44:12;;;;;;;3.10;2.80;;;;;;;;;;4995609;28;20264;-55
2023/04/30 00:46:38;;;;;;;9.15;2.97;;;;;;;;;;4994254;28;20216;-55
2023/04/30 00:49:04;;;;;;;3.67;2.80;;;;;;;;;;4992458;28;20223;-55
2023/04/30 00:51:33;;;;;;;3.33;3.03;;;;;;;;;;4994098;28;20189;-55
2023/04/30 00:54:01;;;;;;;3.17;2.88;;;;;;;;;;4994644;28;20256;-55
2023/04/30 00:56:28;;;;;;;4.28;2.95;;;;;;;;;;4992812;28;20189;-55
2023/04/30 00:58:56;;;;;;;3.13;2.70;;;;;;;;;;4993886;28;20200;-55
2023/04/30 01:01:23;;;;;;;3.30;3.00;;;;;;;;;;4994037;28;20193;-55
2023/04/30 01:03:49;;;;;;;3.78;3.20;;;;;;;;;;4994081;28;20181;-55
2023/04/30 01:06:15;;;;;;;2.90;2.60;;;;;;;;;;4994424;28;20671;-55
2023/04/30 01:08:41;;;;;;;3.00;2.70;;;;;;;;;;4994410;28;20180;-56
2023/04/30 01:11:16;;;;;;;3.00;2.70;;;;;;;;;;4993600;28;20271;-55
2023/04/30 01:13:51;;;;;;;3.28;2.65;;;;;;;;;;4994912;28;20214;-55
2023/04/30 01:16:17;;;;;;;3.25;2.65;;;;;;;;;;4988849;28;20189;-55
2023/04/30 01:18:47;;;;;;;5.95;3.08;;;;;;;;;;4993659;28;20188;-55
2023/04/30 01:21:14;;;;;;;3.03;2.40;;;;;;;;;;4994775;28;20187;-55
2023/04/30 01:24:01;;;;;;;3.20;2.88;;;;;;;;;;4993799;28;20185;-56
2023/04/30 01:26:35;;;;;;;3.05;2.72;;;;;;;;;;4954675;28;20867;-55
2023/04/30 01:29:02;;;;;;;4.65;2.55;;;;;;;;;;4993832;28;20181;-55
2023/04/30 01:31:28;;;;;;;3.13;2.78;;;;;;;;;;4994276;28;20200;-55
2023/04/30 01:33:54;;;;;;;3.00;2.70;;;;;;;;;;4994371;28;20213;-55
2023/04/30 01:36:24;;;;;;;3.67;2.40;;;;;;;;;;4997174;28;20193;-55
2023/04/30 01:39:00;;;;;;;3.05;2.75;;;;;;;;;;4996589;28;20260;-56
2023/04/30 01:41:26;;;;;;;3.00;2.33;;;;;;;;;;4996882;28;20196;-56
2023/04/30 01:44:05;;;;;;;3.00;2.50;;;;;;;;;;4997559;28;20196;-56
2023/04/30 01:46:31;;;;;;;2.75;2.55;;;;;;;;;;4997286;28;20296;-56
2023/04/30 01:49:11;;;;;;;3.95;2.78;;;;;;;;;;4997160;28;20292;-55
2023/04/30 01:51:41;;;;;;;2.83;2.63;;;;;;;;;;4998449;28;20189;-55
2023/04/30 01:54:28;;;;;;;3.35;2.88;;;;;;;;;;4997539;28;20181;-55
2023/04/30 01:57:16;;;;;;;3.60;2.45;;;;;;;;;;4997143;28;20554;-56
2023/04/30 01:59:42;;;;;;;2.88;2.50;;;;;;;;;;4997977;28;20382;-55
2023/04/30 02:02:08;;;;;;;3.38;2.60;;;;;;;;;;4997580;28;20584;-55
2023/04/30 02:04:35;;;;;;;2.70;2.50;;;;;;;;;;4997372;28;20193;-55
2023/04/30 02:07:01;;;;;;;2.97;2.67;;;;;;;;;;4997558;28;20278;-55
2023/04/30 02:09:26;;;;;;;2.75;2.40;;;;;;;;;;4998036;28;20347;-55
2023/04/30 02:11:52;;;;;;;2.58;2.38;;;;;;;;;;4998164;28;20272;-55
2023/04/30 02:14:18;;;;;;;2.88;2.53;;;;;;;;;;4997572;28;20620;-55
2023/04/30 02:16:44;;;;;;;3.03;2.35;;;;;;;;;;4997631;28;20200;-56
2023/04/30 02:19:11;;;;;;;2.85;2.55;;;;;;;;;;4997138;28;20195;-55
2023/04/30 02:21:37;;;;;;;2.47;2.28;;;;;;;;;;4996493;28;20214;-55
2023/04/30 02:24:03;;;;;;;3.10;2.50;;;;;;;;;;4997417;28;20201;-55
2023/04/30 02:26:28;;;;;;;2.45;2.22;;;;;;;;;;4995963;28;20205;-55
2023/04/30 02:28:54;;;;;;;3.17;2.50;;;;;;;;;;4996999;28;20232;-55
2023/04/30 02:31:20;;;;;;;2.53;2.33;;;;;;;;;;4997790;28;20490;-55
2023/04/30 02:33:46;;;;;;;2.78;2.53;;;;;;;;;;4997798;28;20185;-55
2023/04/30 02:36:12;;;;;;;2.50;2.30;;;;;;;;;;4997193;28;20228;-56
2023/04/30 02:38:38;;;;;;;2.58;2.30;;;;;;;;;;4996008;28;20239;-55
2023/04/30 02:41:04;;;;;;;2.65;2.45;;;;;;;;;;4993808;28;20489;-55
2023/04/30 02:43:30;;;;;;;2.60;2.40;;;;;;;;;;4995434;28;20193;-55
2023/04/30 02:45:56;;;;;;;2.70;2.50;;;;;;;;;;4998444;28;20177;-55
2023/04/30 02:48:22;;;;;;;3.35;2.30;;;;;;;;;;4992657;28;20275;-55
2023/04/30 02:50:48;;;;;;;2.90;2.50;;;;;;;;;;4997279;28;20192;-55
2023/04/30 02:53:14;;;;;;;2.40;2.20;;;;;;;;;;4996171;28;20181;-55
2023/04/30 02:55:40;;;;;;;2.22;1.95;;;;;;;;;;4996379;28;20204;-55
2023/04/30 02:58:06;;;;;;;2.30;2.10;;;;;;;;;;4995959;28;20588;-55
2023/04/30 03:00:31;;;;;;;2.38;2.17;;;;;;;;;;4996982;28;20254;-55
2023/04/30 03:02:57;;;;;;;2.50;1.95;;;;;;;;;;4995762;28;20516;-55
2023/04/30 03:05:23;;;;;;;2.53;2.05;;;;;;;;;;4997244;28;20278;-55
2023/04/30 03:07:49;;;;;;;2.30;2.10;;;;;;;;;;4995630;28;20212;-55
2023/04/30 03:10:17;;;;;;;2.28;2.10;;;;;;;;;;4996442;28;20208;-55
2023/04/30 03:12:43;;;;;;;2.25;2.05;;;;;;;;;;4995710;28;20177;-55
2023/04/30 03:15:09;;;;;;;2.58;2.33;;;;;;;;;;4996991;28;20562;-55
2023/04/30 03:17:35;;;;;;;2.05;1.95;;;;;;;;;;4995267;28;20193;-55
2023/04/30 03:20:01;;;;;;;2.25;2.05;;;;;;;;;;4996542;28;20196;-55
2023/04/30 03:22:27;;;;;;;2.83;2.10;;;;;;;;;;4995247;28;20257;-55
2023/04/30 03:24:53;;;;;;;2.25;2.05;;;;;;;;;;4996124;28;20213;-55
2023/04/30 03:27:19;;;;;;;3.20;2.00;;;;;;;;;;4994378;28;20604;-55
2023/04/30 03:29:45;;;;;;;2.22;2.03;;;;;;;;;;4995978;28;20219;-55
2023/04/30 03:32:11;;;;;;;2.30;2.10;;;;;;;;;;4995787;28;20181;-55
2023/04/30 03:34:37;;;;;;;2.13;1.90;;;;;;;;;;4996171;28;20247;-55
2023/04/30 03:37:03;;;;;;;2.38;2.17;;;;;;;;;;4994613;28;20235;-55
2023/04/30 03:39:30;;;;;;;1.95;1.75;;;;;;;;;;4996123;28;20216;-55
2023/04/30 03:41:55;;;;;;;2.13;1.92;;;;;;;;;;4995630;28;20181;-55
2023/04/30 03:44:21;;;;;;;2.90;2.00;;;;;;;;;;4995898;28;20181;-55
2023/04/30 03:46:47;;;;;;;2.33;2.10;;;;;;;;;;4994157;28;20217;-55
2023/04/30 03:49:13;;;;;;;2.40;2.20;;;;;;;;;;4994743;28;20611;-55
2023/04/30 03:51:40;;;;;;;2.15;1.80;;;;;;;;;;4995247;28;20177;-55
2023/04/30 03:54:06;;;;;;;1.98;1.70;;;;;;;;;;4995652;28;20580;-56
2023/04/30 03:56:35;;;;;;;1.90;1.80;;;;;;;;;;4995659;28;20200;-55
2023/04/30 03:59:01;;;;;;;1.98;1.77;;;;;;;;;;4993320;28;20457;-55
2023/04/30 04:01:29;;;;;;;1.92;1.80;;;;;;;;;;4994779;28;20486;-55
2023/04/30 04:03:55;;;;;;;2.40;1.80;;;;;;;;;;4994898;28;20184;-55
2023/04/30 04:06:21;;;;;;;1.80;1.70;;;;;;;;;;4995516;28;20212;-56
2023/04/30 04:08:47;;;;;;;3.10;1.90;;;;;;;;;;4995230;28;20540;-55
2023/04/30 04:11:13;;;;;;;1.80;1.70;;;;;;;;;;4994967;28;20212;-56
2023/04/30 04:13:39;;;;;;;1.98;1.88;;;;;;;;;;4995614;28;20200;-56
2023/04/30 04:16:07;;;;;;;2.42;1.80;;;;;;;;;;4995191;28;20399;-55
2023/04/30 04:18:33;;;;;;;1.98;1.65;;;;;;;;;;4994684;28;20185;-55
2023/04/30 04:21:00;;;;;;;2.67;1.60;;;;;;;;;;4994640;28;20181;-56
2023/04/30 04:23:26;;;;;;;1.77;1.67;;;;;;;;;;4995112;28;20185;-55
2023/04/30 04:25:52;;;;;;;2.58;1.88;;;;;;;;;;4978251;28;20212;-55
2023/04/30 04:28:18;;;;;;;1.80;1.70;;;;;;;;;;4994911;28;20204;-55
2023/04/30 04:30:44;;;;;;;30.23;7.53;;;;;;;;;;4995004;28;20188;-55
2023/04/30 04:33:10;;;;;;;44.47;12.10;;;;;;;;;;4993746;28;20182;-55
2023/04/30 04:35:37;;;;;;;36.00;10.45;;;;;;;;;;4994172;28;20651;-55
2023/04/30 04:38:03;;;;;;;37.83;9.13;;;;;;;;;;4992819;28;20193;-55
2023/04/30 04:40:29;;;;;;;45.22;9.68;;;;;;;;;;4993950;28;20177;-55
2023/04/30 04:42:55;;;;;;;43.65;9.55;;;;;;;;;;4994455;28;20181;-55
2023/04/30 04:45:22;;;;;;;39.15;9.82;;;;;;;;;;4993811;28;20184;-55
2023/04/30 04:47:48;;;;;;;40.80;10.05;;;;;;;;;;4993533;28;20201;-55
2023/04/30 04:50:14;;;;;;;35.55;10.10;;;;;;;;;;4994288;28;20236;-55
2023/04/30 04:52:40;;;;;;;33.95;9.27;;;;;;;;;;4994264;28;20181;-55
2023/04/30 04:55:06;;;;;;;23.92;8.75;;;;;;;;;;4994229;28;20189;-55
2023/04/30 04:57:32;;;;;;;35.53;9.48;;;;;;;;;;4993188;28;20279;-55
2023/04/30 04:59:58;;;;;;;24.08;8.35;;;;;;;;;;4993978;28;20654;-55
2023/04/30 05:02:24;;;;;;;33.80;8.88;;;;;;;;;;4994809;28;20185;-55
2023/04/30 05:04:50;;;;;;;25.08;8.38;;;;;;;;;;4994257;28;20197;-55
2023/04/30 05:07:17;;;;;;;37.38;9.68;;;;;;;;;;4986945;28;20209;-55
2023/04/30 05:09:43;;;;;;;29.00;8.65;;;;;;;;;;4994181;28;20189;-55
2023/04/30 05:12:09;;;;;;;26.20;9.23;;;;;;;;;;5001502;28;20196;-55
2023/04/30 05:14:36;;;;;;;25.83;8.90;;;;;;;;;;5000178;28;20184;-55
2023/04/30 05:17:02;;;;;;;24.85;8.85;;;;;;;;;;4999547;28;20579;-55
2023/04/30 05:19:28;;;;;;;25.27;9.15;;;;;;;;;;5000069;28;20188;-55
2023/04/30 05:21:53;;;;;;;35.65;10.80;;;;;;;;;;4999525;28;20197;-55
2023/04/30 05:24:19;;;;;;;31.88;9.95;;;;;;;;;;4999898;28;20256;-55
2023/04/30 05:26:45;;;;;;;36.13;10.30;;;;;;;;;;4996156;28;20288;-56
2023/04/30 05:29:12;;;;;;;35.70;9.90;;;;;;;;;;4999028;28;20181;-55
2023/04/30 05:31:38;;;;;;;38.20;10.55;;;;;;;;;;5000241;28;20615;-55
2023/04/30 05:34:04;;;;;;;36.97;11.07;;;;;;;;;;5000291;28;20184;-55
2023/04/30 05:36:30;;;;;;;34.28;11.02;;;;;;;;;;5000722;28;20479;-55
2023/04/30 05:38:56;;;;;;;33.28;10.35;;;;;;;;;;4998901;28;20564;-55
2023/04/30 05:41:22;;;;;;;35.25;11.52;;;;;;;;;;5001289;28;20267;-55
2023/04/30 05:43:48;;;;;;;35.65;10.63;;;;;;;;;;4998948;28;20208;-56
2023/04/30 05:46:17;;;;;;;32.80;11.02;;;;;;;;;;4998875;28;20209;-55
2023/04/30 05:48:43;;;;;;;28.63;10.63;;;;;;;;;;4997939;28;20790;-55
2023/04/30 05:51:09;;;;;;;32.22;10.65;;;;;;;;;;4999943;28;20185;-55
2023/04/30 05:53:35;;;;;;;30.10;9.57;;;;;;;;;;5000877;28;20204;-56
2023/04/30 05:56:01;;;;;;;31.23;10.30;;;;;;;;;;4999537;28;20469;-56
2023/04/30 05:58:27;;;;;;;31.20;10.05;;;;;;;;;;5000377;28;21643;-56
2023/04/30 06:00:53;;;;;;;35.55;10.23;;;;;;;;;;5000574;28;20184;-55
2023/04/30 06:03:19;;;;;;;30.98;9.88;;;;;;;;;;5000374;28;20192;-56
2023/04/30 06:05:46;;;;;;;32.67;10.15;;;;;;;;;;5000828;28;20192;-55
2023/04/30 06:08:12;;;;;;;27.25;9.10;;;;;;;;;;5000176;28;20288;-55
2023/04/30 06:10:38;;;;;;;32.70;11.18;;;;;;;;;;5000479;28;20569;-55
2023/04/30 06:13:04;;;;;;;23.40;9.23;;;;;;;;;;5000483;28;20609;-55
2023/04/30 06:15:30;;;;;;;27.08;8.98;;;;;;;;;;5000856;28;20184;-55
2023/04/30 06:17:56;;;;;;;23.20;8.60;;;;;;;;;;4999849;28;20250;-56
2023/04/30 06:20:22;;;;;;;25.40;9.70;;;;;;;;;;4999532;28;20197;-55
2023/04/30 06:22:48;;;;;;;24.65;9.05;;;;;;;;;;4997929;28;20211;-55
2023/04/30 06:25:14;;;;;;;21.17;8.85;;;;;;;;;;4997698;28;20420;-56
2023/04/30 06:27:40;;;;;;;26.92;9.45;;;;;;;;;;4996923;28;20235;-55
2023/04/30 06:30:06;;;;;;;25.67;8.88;;;;;;;;;;4997375;28;20218;-56
2023/04/30 06:32:32;;;;;;;21.65;8.27;;;;;;;;;;4997608;28;20177;-55
2023/04/30 06:34:58;;;;;;;21.95;8.57;;;;;;;;;;4995356;28;20185;-55
2023/04/30 06:37:24;;;;;;;26.42;8.55;;;;;;;;;;4996452;28;20192;-55
2023/04/30 06:39:50;;;;;;;21.95;8.35;;;;;;;;;;4996924;28;20264;-55
2023/04/30 06:42:16;;;;;;;16.88;8.23;;;;;;;;;;4996117;28;20255;-55
2023/04/30 06:44:42;;;;;;;23.50;8.82;;;;;;;;;;4997165;28;20193;-56
2023/04/30 06:47:08;;;;;;;20.40;8.48;;;;;;;;;;4995403;28;20201;-56
2023/04/30 06:49:34;;;;;;;22.67;7.88;;;;;;;;;;4995353;28;20256;-55
2023/04/30 06:52:00;;;;;;;20.30;7.72;;;;;;;;;;4996286;28;20557;-55
2023/04/30 06:54:26;;;;;;;21.80;7.72;;;;;;;;;;4996846;28;20189;-55
2023/04/30 06:56:52;;;;;;;17.77;7.85;;;;;;;;;;4996169;28;20765;-55
2023/04/30 06:59:18;;;;;;;18.30;7.68;;;;;;;;;;4995912;28;20197;-56
2023/04/30 07:01:44;;;;;;;16.70;7.28;;;;;;;;;;4995832;28;20185;-56
2023/04/30 07:04:10;;;;;;;19.60;7.22;;;;;;;;;;4995298;28;20319;-56
2023/04/30 07:06:36;;;;;;;20.55;7.72;;;;;;;;;;4996659;28;20807;-56
2023/04/30 07:09:03;;;;;;;15.77;6.75;;;;;;;;;;4995748;28;20192;-56
2023/04/30 07:11:29;;;;;;;17.55;7.50;;;;;;;;;;4994246;28;20173;-56
2023/04/30 07:13:55;;;;;;;17.77;7.43;;;;;;;;;;4995343;28;20657;-56
2023/04/30 07:16:21;;;;;;;16.40;7.22;;;;;;;;;;4994074;28;20284;-55
2023/04/30 07:18:48;;;;;;;17.40;7.20;;;;;;;;;;4994164;28;20192;-55
2023/04/30 07:21:14;;;;;;;17.38;6.47;;;;;;;;;;4995475;28;20189;-55
2023/04/30 07:23:41;;;;;;;17.85;6.47;;;;;;;;;;4996047;28;20247;-55
2023/04/30 07:26:07;;;;;;;15.38;6.68;;;;;;;;;;4995733;28;20189;-55
2023/04/30 07:28:33;;;;;;;13.38;6.75;;;;;;;;;;4994306;28;20296;-56
2023/04/30 07:30:59;;;;;;;14.15;6.28;;;;;;;;;;4996559;28;20192;-56
2023/04/30 07:33:25;;;;;;;14.55;6.13;;;;;;;;;;4995356;28;20192;-56
2023/04/30 07:35:51;;;;;;;18.90;7.53;;;;;;;;;;4995534;28;20547;-56
2023/04/30 07:38:18;;;;;;;19.35;6.95;;;;;;;;;;4993815;28;20193;-56
2023/04/30 07:40:44;;;;;;;13.25;6.47;;;;;;;;;;4979348;28;20579;-55
2023/04/30 07:43:10;;;;;;;16.33;6.38;;;;;;;;;;4995595;28;20189;-55
2023/04/30 07:45:37;;;;;;;13.35;5.50;;;;;;;;;;4994383;28;20255;-55
2023/04/30 07:48:03;;;;;;;12.10;5.40;;;;;;;;;;4993410;28;20204;-55
2023/04/30 07:50:32;;;;;;;10.63;5.20;;;;;;;;;;4995095;28;20181;-55
2023/04/30 07:52:58;;;;;;;8.73;4.97;;;;;;;;;;4994701;28;20177;-55
2023/04/30 07:55:24;;;;;;;12.30;5.40;;;;;;;;;;4994881;28;20276;-55
2023/04/30 07:57:50;;;;;;;9.82;5.63;;;;;;;;;;4995501;28;20228;-55
2023/04/30 08:00:16;;;;;;;13.23;5.72;;;;;;;;;;4996514;28;20268;-56
2023/04/30 08:02:47;;;;;;;8.18;4.40;;;;;;;;;;4995327;28;20189;-55
2023/04/30 08:05:13;;;;;;;10.18;4.70;;;;;;;;;;4995828;28;20440;-55
2023/04/30 08:07:40;;;;;;;8.18;4.88;;;;;;;;;;4995146;28;20205;-55
2023/04/30 08:10:06;;;;;;;9.90;5.13;;;;;;;;;;4995065;28;20181;-56
2023/04/30 08:12:35;;;;;;;9.10;4.60;;;;;;;;;;4995468;28;20216;-56
2023/04/30 08:15:03;;;;;;;8.75;4.50;;;;;;;;;;4995576;28;20265;-56
2023/04/30 08:17:29;;;;;;;10.32;4.15;;;;;;;;;;4994332;28;20704;-56
2023/04/30 08:19:55;;;;;;;9.73;4.75;;;;;;;;;;4991614;28;20186;-56
2023/04/30 08:22:22;;;;;;;6.85;3.70;;;;;;;;;;4995247;28;20224;-56
2023/04/30 08:24:48;;;;;;;6.43;3.97;;;;;;;;;;4995531;28;20461;-56
2023/04/30 08:27:14;;;;;;;5.00;3.65;;;;;;;;;;4994014;28;20217;-55
2023/04/30 08:29:40;;;;;;;6.15;3.55;;;;;;;;;;4994740;28;20319;-55
2023/04/30 08:32:05;;;;;;;6.70;3.85;;;;;;;;;;4994549;28;20181;-56
2023/04/30 08:34:32;;;;;;;5.28;3.20;;;;;;;;;;4993394;28;20197;-56
2023/04/30 08:36:58;;;;;;;5.10;3.35;;;;;;;;;;4994967;28;20185;-56
2023/04/30 08:39:24;;;;;;;6.18;3.35;;;;;;;;;;4993808;28;20583;-56
2023/04/30 08:41:58;;;;;;;6.88;3.45;;;;;;;;;;4994423;28;20611;-55
2023/04/30 08:44:26;;;;;;;3.53;2.85;;;;;;;;;;4994215;28;20206;-55
2023/04/30 08:46:53;;;;;;;5.03;3.25;;;;;;;;;;4989409;28;20208;-55
2023/04/30 08:49:21;;;;;;;6.35;3.40;;;;;;;;;;4993630;28;20177;-55
2023/04/30 08:51:47;;;;;;;5.30;3.47;;;;;;;;;;4993909;28;20196;-55
2023/04/30 08:54:13;;;;;;;5.22;2.90;;;;;;;;;;4993815;28;20196;-55
2023/04/30 08:56:40;;;;;;;3.22;2.70;;;;;;;;;;4994447;28;20189;-55
2023/04/30 08:59:06;;;;;;;4.80;3.05;;;;;;;;;;4993618;28;20232;-55
2023/04/30 09:01:33;;;;;;;3.92;2.85;;;;;;;;;;4992019;28;20231;-55
2023/04/30 09:03:59;;;;;;;4.55;2.80;;;;;;;;;;4994208;28;20187;-56
2023/04/30 09:06:26;;;;;;;3.08;2.40;;;;;;;;;;4994515;28;21105;-55
2023/04/30 09:08:53;;;;;;;4.00;2.80;;;;;;;;;;4992384;28;20260;-55
2023/04/30 09:11:26;;;;;;;3.10;2.80;;;;;;;;;;4991206;28;20215;-55
2023/04/30 09:13:53;;;;;;;5.10;2.58;;;;;;;;;;4995139;28;20181;-55
2023/04/30 09:16:23;;;;;;;4.45;2.42;;;;;;;;;;4993787;28;20185;-55
2023/04/30 09:18:49;;;;;;;4.05;2.30;;;;;;;;;;4993929;28;20235;-56
2023/04/30 09:21:15;;;;;;;4.22;2.35;;;;;;;;;;4993717;28;20189;-56
2023/04/30 09:23:54;;;;;;;4.60;2.50;;;;;;;;;;4993719;28;20225;-55
2023/04/30 09:26:26;;;;;;;2.78;2.00;;;;;;;;;;4993776;28;20208;-55
2023/04/30 09:28:59;;;;;;;4.03;2.50;;;;;;;;;;4992932;28;20181;-55
2023/04/30 09:31:25;;;;;;;4.00;2.70;;;;;;;;;;4994254;28;20188;-55
2023/04/30 09:33:52;;;;;;;2.58;2.35;;;;;;;;;;4994989;28;20184;-55
2023/04/30 09:36:18;;;;;;;5.80;2.35;;;;;;;;;;4994389;28;20173;-55
2023/04/30 09:38:44;;;;;;;4.50;2.50;;;;;;;;;;4992141;28;20184;-55
2023/04/30 09:41:23;;;;;;;2.40;2.20;;;;;;;;;;4994508;28;20173;-55
2023/04/30 09:43:50;;;;;;;3.08;2.30;;;;;;;;;;4993129;28;20276;-55
2023/04/30 09:46:18;;;;;;;2.92;2.30;;;;;;;;;;4994652;28;20569;-55
2023/04/30 09:48:44;;;;;;;5.20;2.30;;;;;;;;;;4992085;28;20630;-55
2023/04/30 09:51:10;;;;;;;3.85;2.40;;;;;;;;;;4993609;28;20915;-56
2023/04/30 09:53:40;;;;;;;4.78;2.30;;;;;;;;;;4993218;28;20236;-55
2023/04/30 09:56:07;;;;;;;3.88;2.58;;;;;;;;;;4993503;28;20214;-55
2023/04/30 09:58:37;;;;;;;4.70;2.50;;;;;;;;;;4996330;28;20228;-55
2023/04/30 10:01:06;;;;;;;3.63;2.20;;;;;;;;;;4997643;28;20197;-55
2023/04/30 10:03:32;;;;;;;3.33;2.38;;;;;;;;;;4997316;28;20235;-55
2023/04/30 10:05:58;;;;;;;3.45;2.30;;;;;;;;;;4998231;28;20232;-55
2023/04/30 10:08:27;;;;;;;5.05;2.55;;;;;;;;;;4997423;28;20209;-55
2023/04/30 10:10:59;;;;;;;3.67;2.33;;;;;;;;;;4997904;28;20247;-56
2023/04/30 10:13:26;;;;;;;2.65;2.13;;;;;;;;;;4997890;28;20184;-56
2023/04/30 10:15:55;;;;;;;3.75;2.17;;;;;;;;;;4997800;28;20208;-55
2023/04/30 10:18:24;;;;;;;2.20;2.00;;;;;;;;;;4996034;28;20308;-55
2023/04/30 10:20:51;;;;;;;4.25;2.60;;;;;;;;;;4997962;28;20212;-56
2023/04/30 10:23:17;;;;;;;4.05;2.53;;;;;;;;;;4997729;28;20189;-55
2023/04/30 10:25:44;;;;;;;5.72;2.45;;;;;;;;;;4997860;28;20196;-56
2023/04/30 10:28:10;;;;;;;3.13;2.15;;;;;;;;;;4996312;28;20244;-55
2023/04/30 10:30:36;;;;;;;3.78;2.25;;;;;;;;;;4997816;28;20201;-55
2023/04/30 10:33:02;;;;;;;2.50;2.17;;;;;;;;;;4996518;28;20181;-55
2023/04/30 10:35:34;;;;;;;3.42;2.20;;;;;;;;;;4996012;28;20199;-57
2023/04/30 10:38:07;;;;;;;3.67;2.22;;;;;;;;;;4995494;28;20193;-56
2023/04/30 10:40:37;;;;;;;3.40;2.55;;;;;;;;;;4996661;28;20196;-56
2023/04/30 10:43:03;;;;;;;4.15;2.22;;;;;;;;;;4993557;28;20235;-56
2023/04/30 10:45:36;;;;;;;3.15;2.40;;;;;;;;;;4995804;28;20197;-56
2023/04/30 10:48:02;;;;;;;4.47;2.08;;;;;;;;;;4996453;28;20212;-56
2023/04/30 10:50:29;;;;;;;5.57;2.55;;;;;;;;;;4996644;28;20248;-56
2023/04/30 10:53:02;;;;;;;6.13;2.40;;;;;;;;;;4996983;28;20173;-56
2023/04/30 10:55:29;;;;;;;3.83;2.45;;;;;;;;;;4995864;28;20307;-56
2023/04/30 10:57:54;;;;;;;3.70;2.58;;;;;;;;;;4996309;28;20260;-56
2023/04/30 11:00:26;;;;;;;3.78;2.60;;;;;;;;;;4996633;28;20213;-56
2023/04/30 11:02:55;;;;;;;4.32;2.70;;;;;;;;;;4996034;28;20189;-56
2023/04/30 11:05:32;;;;;;;3.42;2.58;;;;;;;;;;4996917;28;20197;-56
2023/04/30 11:07:58;;;;;;;3.67;2.60;;;;;;;;;;4995615;28;20216;-56
2023/04/30 11:10:27;;;;;;;5.53;3.22;;;;;;;;;;4996733;28;20181;-56
2023/04/30 11:12:54;;;;;;;3.83;2.92;;;;;;;;;;4996569;28;20177;-56
2023/04/30 11:15:21;;;;;;;4.47;3.20;;;;;;;;;;4995472;28;20268;-56
2023/04/30 11:17:48;;;;;;;4.22;2.58;;;;;;;;;;4994383;28;20288;-56
2023/04/30 11:20:18;;;;;;;3.13;2.80;;;;;;;;;;4995690;28;20185;-56
2023/04/30 11:22:44;;;;;;;5.05;3.25;;;;;;;;;;4994646;28;20173;-56
2023/04/30 11:25:14;;;;;;;2.85;2.40;;;;;;;;;;4996599;28;20267;-56
2023/04/30 11:27:41;;;;;;;4.70;3.10;;;;;;;;;;4995100;28;20498;-56
2023/04/30 11:30:17;;;;;;;3.20;2.90;;;;;;;;;;4996307;28;20173;-56
2023/04/30 11:32:46;;;;;;;3.45;3.00;;;;;;;;;;4990859;28;20177;-56
2023/04/30 11:35:13;;;;;;;4.57;3.25;;;;;;;;;;4994388;28;20231;-56
2023/04/30 11:37:42;;;;;;;2.92;2.70;;;;;;;;;;4994906;28;20185;-56
2023/04/30 11:40:09;;;;;;;4.47;2.92;;;;;;;;;;4995879;28;20616;-56
2023/04/30 11:42:38;;;;;;;4.05;3.10;;;;;;;;;;4995537;28;20739;-56
2023/04/30 11:45:07;;;;;;;4.30;3.08;;;;;;;;;;4995346;28;20196;-56
2023/04/30 11:47:46;;;;;;;4.22;3.28;;;;;;;;;;4994600;28;20224;-56
2023/04/30 11:50:13;;;;;;;3.25;2.90;;;;;;;;;;4996219;28;20212;-56
2023/04/30 11:52:40;;;;;;;3.45;2.85;;;;;;;;;;4995346;28;20225;-56
2023/04/30 11:55:17;;;;;;;3.10;2.78;;;;;;;;;;4995960;28;20517;-56
2023/04/30 11:57:43;;;;;;;5.22;3.00;;;;;;;;;;4990164;28;20524;-56
2023/04/30 12:00:17;;;;;;;4.20;2.90;;;;;;;;;;4996844;28;20292;-56
2023/04/30 12:02:44;;;;;;;3.17;2.90;;;;;;;;;;4996932;28;20345;-56
2023/04/30 12:05:14;;;;;;;3.40;2.60;;;;;;;;;;4985530;28;20180;-55
2023/04/30 12:07:45;;;;;;;5.43;3.03;;;;;;;;;;4994306;28;20207;-55
2023/04/30 12:10:11;;;;;;;5.18;2.88;;;;;;;;;;4995951;28;20191;-55
2023/04/30 12:12:37;;;;;;;5.25;2.80;;;;;;;;;;4997535;28;20185;-55
2023/04/30 12:15:12;;;;;;;3.20;2.55;;;;;;;;;;4995638;28;20216;-55
2023/04/30 12:17:38;;;;;;;3.22;2.63;;;;;;;;;;4994652;28;20195;-55
2023/04/30 12:20:04;;;;;;;2.83;2.55;;;;;;;;;;4995089;28;20260;-55
2023/04/30 12:22:30;;;;;;;2.92;2.67;;;;;;;;;;4995432;28;20188;-55
2023/04/30 12:24:58;;;;;;;3.67;2.63;;;;;;;;;;4994504;28;20207;-55
2023/04/30 12:27:24;;;;;;;5.60;2.90;;;;;;;;;;4993756;28;20221;-55
2023/04/30 12:29:53;;;;;;;2.75;2.10;;;;;;;;;;4994978;28;20185;-55
2023/04/30 12:32:20;;;;;;;2.50;2.30;;;;;;;;;;4995433;28;20497;-56
2023/04/30 12:34:47;;;;;;;2.50;2.25;;;;;;;;;;4995405;28;20207;-56
2023/04/30 12:37:15;;;;;;;2.60;2.33;;;;;;;;;;4994166;28;20636;-56
2023/04/30 12:39:42;;;;;;;3.47;2.25;;;;;;;;;;4989702;28;20192;-55
2023/04/30 12:42:07;;;;;;;3.65;2.13;;;;;;;;;;4994382;28;20192;-56
2023/04/30 12:44:42;;;;;;;4.22;2.42;;;;;;;;;;4994627;28;20189;-56
2023/04/30 12:47:08;;;;;;;2.80;2.47;;;;;;;;;;4988250;28;20263;-56
2023/04/30 12:49:35;;;;;;;2.50;2.30;;;;;;;;;;4996961;28;20497;-56
2023/04/30 12:52:02;;;;;;;4.35;2.15;;;;;;;;;;4996463;28;20194;-56
2023/04/30 12:54:29;;;;;;;2.63;2.10;;;;;;;;;;4989014;28;20208;-56
2023/04/30 12:57:11;;;;;;;1.92;1.80;;;;;;;;;;4994744;28;20276;-55
2023/04/30 12:59:38;;;;;;;2.38;1.83;;;;;;;;;;4994001;28;20260;-55
2023/04/30 13:02:05;;;;;;;2.90;1.90;;;;;;;;;;4992416;28;20189;-55
2023/04/30 13:04:31;;;;;;;2.30;1.80;;;;;;;;;;4994083;28;20177;-56
2023/04/30 13:06:57;;;;;;;2.70;2.00;;;;;;;;;;4993627;28;20209;-56
2023/04/30 13:09:23;;;;;;;1.85;1.75;;;;;;;;;;4994732;28;20561;-56
2023/04/30 13:11:49;;;;;;;4.63;2.00;;;;;;;;;;4993617;28;20185;-56
2023/04/30 13:14:16;;;;;;;2.30;1.90;;;;;;;;;;4995188;28;20181;-56
2023/04/30 13:16:42;;;;;;;3.17;1.98;;;;;;;;;;4989076;28;20227;-56
2023/04/30 13:19:09;;;;;;;2.70;1.70;;;;;;;;;;4993529;28;20174;-56
2023/04/30 13:21:35;;;;;;;1.73;1.60;;;;;;;;;;4985337;28;20280;-56
2023/04/30 13:24:01;;;;;;;3.95;1.98;;;;;;;;;;4994451;28;20207;-56
2023/04/30 13:26:27;;;;;;;4.50;2.33;;;;;;;;;;4994265;28;20193;-56
2023/04/30 13:28:53;;;;;;;3.65;1.83;;;;;;;;;;4994666;28;20228;-56
2023/04/30 13:31:19;;;;;;;4.18;1.95;;;;;;;;;;4994625;28;20460;-56
2023/04/30 13:33:45;;;;;;;4.65;2.45;;;;;;;;;;4998906;28;20188;-56
2023/04/30 13:36:11;;;;;;;3.35;2.60;;;;;;;;;;4997396;28;20205;-56
2023/04/30 13:38:38;;;;;;;3.03;2.10;;;;;;;;;;4997784;28;20251;-56
2023/04/30 13:41:04;;;;;;;2.53;1.98;;;;;;;;;;4997297;28;20189;-56
2023/04/30 13:43:30;;;;;;;3.13;2.05;;;;;;;;;;4998697;28;20569;-56
2023/04/30 13:45:57;;;;;;;3.45;2.35;;;;;;;;;;4997489;28;20549;-56
2023/04/30 13:48:23;;;;;;;2.15;1.83;;;;;;;;;;4996766;28;20484;-56
2023/04/30 13:50:49;;;;;;;3.35;2.35;;;;;;;;;;4997773;28;20260;-56
2023/04/30 13:53:15;;;;;;;3.78;2.13;;;;;;;;;;4998716;28;20488;-56
2023/04/30 13:55:41;;;;;;;2.63;2.03;;;;;;;;;;4997313;28;20193;-56
2023/04/30 13:58:07;;;;;;;4.22;2.20;;;;;;;;;;4995878;28;20267;-56
2023/04/30 14:00:33;;;;;;;4.38;2.53;;;;;;;;;;4998098;28;20232;-56
2023/04/30 14:02:59;;;;;;;2.78;2.00;;;;;;;;;;4996554;28;20177;-56
2023/04/30 14:05:25;;;;;;;2.42;2.20;;;;;;;;;;4998019;28;20188;-56
2023/04/30 14:07:51;;;;;;;3.10;1.95;;;;;;;;;;4997662;28;20206;-56
2023/04/30 14:10:17;;;;;;;3.25;1.90;;;;;;;;;;4998258;28;20204;-56
2023/04/30 14:12:43;;;;;;;4.90;2.45;;;;;;;;;;4997695;28;20181;-55
2023/04/30 14:15:09;;;;;;;3.17;1.88;;;;;;;;;;4997686;28;20553;-55
2023/04/30 14:17:35;;;;;;;3.60;2.35;;;;;;;;;;4994780;28;20189;-55
2023/04/30 14:20:01;;;;;;;5.53;2.03;;;;;;;;;;4996229;28;20196;-55
2023/04/30 14:22:26;;;;;;;3.05;1.67;;;;;;;;;;4997002;28;20731;-56
2023/04/30 14:24:53;;;;;;;2.78;2.03;;;;;;;;;;4998252;28;20181;-56
2023/04/30 14:27:20;;;;;;;3.42;2.20;;;;;;;;;;4997135;28;20217;-56
2023/04/30 14:29:46;;;;;;;3.75;2.03;;;;;;;;;;4997981;28;20224;-56
2023/04/30 14:32:12;;;;;;;4.68;2.13;;;;;;;;;;4996608;28;20177;-56
2023/04/30 14:34:38;;;;;;;5.93;2.20;;;;;;;;;;4997549;28;20181;-56
2023/04/30 14:37:05;;;;;;;2.92;1.80;;;;;;;;;;4996494;28;20207;-56